createdAt,value
2022-10-22T00:00:37.248Z,12.54
2022-10-22T00:03:04.131Z,12.53
2022-10-22T00:05:30.655Z,12.53
2022-10-22T00:08:00.679Z,12.52
2022-10-22T00:10:27.291Z,12.51
2022-10-22T00:12:53.840Z,12.50
2022-10-22T00:15:20.386Z,12.49
2022-10-22T00:17:51.609Z,12.47
2022-10-22T00:20:18.183Z,12.47
2022-10-22T00:22:44.718Z,12.47
2022-10-22T00:25:11.409Z,12.45
2022-10-22T00:27:38.450Z,12.42
2022-10-22T00:30:05.791Z,12.41
2022-10-22T00:32:34.247Z,12.39
2022-10-22T00:35:01.032Z,12.38
2022-10-22T00:37:27.589Z,12.39
2022-10-22T00:40:00.718Z,12.41
2022-10-22T00:42:31.756Z,12.41
2022-10-22T00:45:22.940Z,12.42
2022-10-22T00:48:11.715Z,12.41
2022-10-22T00:50:43.731Z,12.43
2022-10-22T00:53:16.956Z,12.40
2022-10-22T00:55:48.506Z,12.39
2022-10-22T00:58:15.622Z,12.40
2022-10-22T01:09:16.015Z,12.40
2022-10-22T01:12:02.794Z,12.41
2022-10-22T01:14:40.875Z,12.44
2022-10-22T01:17:15.574Z,12.43
2022-10-22T01:20:03.124Z,12.42
2022-10-22T01:22:40.605Z,12.43
2022-10-22T01:25:18.045Z,12.48
2022-10-22T01:27:47.751Z,12.51
2022-10-22T01:30:15.921Z,12.53
2022-10-22T01:32:52.303Z,12.53
2022-10-22T01:35:24.489Z,12.53
2022-10-22T01:37:56.099Z,12.53
2022-10-22T01:40:23.851Z,12.55
2022-10-22T01:43:02.743Z,12.58
2022-10-22T01:45:33.604Z,12.60
2022-10-22T01:48:19.518Z,12.59
2022-10-22T01:50:46.032Z,12.62
2022-10-22T01:53:46.634Z,12.65
2022-10-22T01:56:37.863Z,12.67
2022-10-22T01:59:56.882Z,12.67
2022-10-22T02:02:43.514Z,12.67
2022-10-22T02:05:18.427Z,12.66
2022-10-22T02:08:08.882Z,12.66
2022-10-22T02:10:41.126Z,12.66
2022-10-22T02:13:12.385Z,12.65
2022-10-22T02:15:44.526Z,12.67
2022-10-22T02:18:11.952Z,12.70
2022-10-22T02:20:41.681Z,12.75
2022-10-22T02:23:09.961Z,12.74
2022-10-22T02:25:40.474Z,12.74
2022-10-22T02:28:17.355Z,12.80
2022-10-22T02:30:49.033Z,12.82
2022-10-22T02:33:21.950Z,12.80
2022-10-22T02:35:49.854Z,12.79
2022-10-22T02:38:18.858Z,12.77
2022-10-22T02:40:47.338Z,12.82
2022-10-22T02:43:14.168Z,12.79
2022-10-22T02:45:40.667Z,12.78
2022-10-22T02:48:07.536Z,12.77
2022-10-22T02:50:34.114Z,12.78
2022-10-22T02:53:00.629Z,12.77
2022-10-22T02:55:35.757Z,12.77
2022-10-22T02:58:02.302Z,12.78
2022-10-22T03:00:28.936Z,12.79
2022-10-22T03:02:55.641Z,12.80
2022-10-22T03:05:22.119Z,12.82
2022-10-22T03:07:50.707Z,12.82
2022-10-22T03:10:17.486Z,12.84
2022-10-22T03:12:44.238Z,12.84
2022-10-22T03:15:10.905Z,12.84
2022-10-22T03:17:39.438Z,12.83
2022-10-22T03:20:08.454Z,12.83
2022-10-22T03:22:39.355Z,12.82
2022-10-22T03:25:10.658Z,12.82
2022-10-22T03:27:40.443Z,12.79
2022-10-22T03:30:08.271Z,12.79
2022-10-22T03:32:34.910Z,12.75
2022-10-22T03:35:01.434Z,12.73
2022-10-22T03:37:28.193Z,12.74
2022-10-22T03:39:55.524Z,12.73
2022-10-22T03:42:22.674Z,12.72
2022-10-22T03:44:49.334Z,12.70
2022-10-22T03:47:17.609Z,12.69
2022-10-22T03:49:46.041Z,12.69
2022-10-22T03:52:14.487Z,12.68
2022-10-22T03:54:42.573Z,12.69
2022-10-22T03:57:10.189Z,12.68
2022-10-22T03:59:41.960Z,12.71
2022-10-22T04:02:08.891Z,12.71
2022-10-22T04:04:36.132Z,12.71
2022-10-22T04:07:03.209Z,12.70
2022-10-22T04:09:35.411Z,12.73
2022-10-22T04:12:02.298Z,12.72
2022-10-22T04:14:28.783Z,12.72
2022-10-22T04:16:57.355Z,12.72
2022-10-22T04:19:23.879Z,12.76
2022-10-22T04:21:50.691Z,12.80
2022-10-22T04:24:17.324Z,12.81
2022-10-22T04:26:43.843Z,12.83
2022-10-22T04:29:13.592Z,12.84
2022-10-22T04:31:42.828Z,12.87
2022-10-22T04:34:11.314Z,12.87
2022-10-22T04:36:37.806Z,12.90
2022-10-22T04:39:05.492Z,12.90
2022-10-22T04:41:34.422Z,12.87
2022-10-22T04:44:01.314Z,12.83
2022-10-22T04:46:30.721Z,12.83
2022-10-22T04:48:57.919Z,12.81
2022-10-22T04:51:26.900Z,12.79
2022-10-22T04:53:55.538Z,12.77
2022-10-22T04:56:25.138Z,12.76
2022-10-22T04:59:03.970Z,12.72
2022-10-22T05:01:39.976Z,12.62
2022-10-22T05:04:14.441Z,12.56
2022-10-22T05:06:42.945Z,12.49
2022-10-22T05:09:15.880Z,12.44
2022-10-22T05:11:46.410Z,12.40
2022-10-22T05:14:13.337Z,12.39
2022-10-22T05:16:40.383Z,12.38
2022-10-22T05:19:07.945Z,12.38
2022-10-22T05:21:34.942Z,12.35
2022-10-22T05:24:09.284Z,12.34
2022-10-22T05:26:35.796Z,12.33
2022-10-22T05:29:02.310Z,12.32
2022-10-22T05:31:29.181Z,12.32
2022-10-22T05:34:00.190Z,12.34
2022-10-22T05:36:26.705Z,12.35
2022-10-22T05:38:55.344Z,12.35
2022-10-22T05:41:24.478Z,12.33
2022-10-22T05:43:51.568Z,12.32
2022-10-22T05:46:23.007Z,12.31
2022-10-22T05:48:56.067Z,12.32
2022-10-22T05:51:23.126Z,12.31
2022-10-22T05:53:55.033Z,12.30
2022-10-22T05:56:22.715Z,12.26
2022-10-22T05:58:49.536Z,12.25
2022-10-22T06:01:19.616Z,12.24
2022-10-22T06:03:47.214Z,12.24
2022-10-22T06:06:47.777Z,12.24
2022-10-22T06:09:30.853Z,12.23
2022-10-22T06:11:58.165Z,12.23
2022-10-22T06:14:25.201Z,12.24
2022-10-22T06:16:52.117Z,12.24
2022-10-22T06:19:21.053Z,12.25
2022-10-22T06:21:48.436Z,12.25
2022-10-22T06:24:17.388Z,12.26
2022-10-22T06:26:44.299Z,12.27
2022-10-22T06:29:11.335Z,12.28
2022-10-22T06:31:37.862Z,12.31
2022-10-22T06:34:20.214Z,12.32
2022-10-22T06:36:47.417Z,12.36
2022-10-22T06:39:17.047Z,12.41
2022-10-22T06:41:43.777Z,12.42
2022-10-22T06:44:19.596Z,12.43
2022-10-22T06:46:46.134Z,12.43
2022-10-22T06:49:14.690Z,12.46
2022-10-22T06:51:41.405Z,12.47
2022-10-22T06:54:10.587Z,12.49
2022-10-22T06:56:37.098Z,12.53
2022-10-22T06:59:04.209Z,12.55
2022-10-22T07:01:34.582Z,12.55
2022-10-22T07:04:01.538Z,12.55
2022-10-22T07:06:29.242Z,12.59
2022-10-22T07:09:02.013Z,12.61
2022-10-22T07:11:31.017Z,12.65
2022-10-22T07:13:59.087Z,12.68
2022-10-22T07:16:32.147Z,12.71
2022-10-22T07:18:59.727Z,12.78
2022-10-22T07:21:26.231Z,12.82
2022-10-22T07:23:57.437Z,12.85
2022-10-22T07:26:28.540Z,12.89
2022-10-22T07:28:57.168Z,13.01
2022-10-22T07:31:29.293Z,13.34
2022-10-22T07:33:56.135Z,13.32
2022-10-22T07:36:24.877Z,13.43
2022-10-22T07:38:58.156Z,13.60
2022-10-22T07:41:25.647Z,13.95
2022-10-22T07:43:52.275Z,14.28
2022-10-22T07:46:19.931Z,15.09
2022-10-22T07:48:48.729Z,14.96
2022-10-22T07:51:15.876Z,15.48
2022-10-22T07:53:42.725Z,15.90
2022-10-22T07:56:09.426Z,17.61
2022-10-22T07:58:36.530Z,18.98
2022-10-22T08:01:08.429Z,19.49
2022-10-22T08:03:35.538Z,19.38
2022-10-22T08:06:02.700Z,18.91
2022-10-22T08:08:42.080Z,18.50
2022-10-22T08:11:10.102Z,18.35
2022-10-22T08:13:37.492Z,19.25
2022-10-22T08:16:06.114Z,20.59
2022-10-22T08:18:32.622Z,20.60
2022-10-22T08:20:59.221Z,19.75
2022-10-22T08:23:28.692Z,18.89
2022-10-22T08:25:56.685Z,18.11
2022-10-22T08:28:23.138Z,17.99
2022-10-22T08:30:51.586Z,17.92
2022-10-22T08:33:18.213Z,17.48
2022-10-22T08:35:49.721Z,17.35
2022-10-22T08:38:16.687Z,17.26
2022-10-22T08:40:50.148Z,16.97
2022-10-22T08:43:37.022Z,16.70
2022-10-22T08:46:16.481Z,16.96
2022-10-22T08:48:47.543Z,17.65
2022-10-22T08:51:21.382Z,19.09
2022-10-22T08:54:05.347Z,20.09
2022-10-22T08:56:34.994Z,20.59
2022-10-22T08:59:11.378Z,20.98
2022-10-22T09:01:46.143Z,21.03
2022-10-22T09:04:36.508Z,20.77
2022-10-22T09:07:04.979Z,21.20
2022-10-22T09:09:47.019Z,22.18
2022-10-22T09:12:20.215Z,22.74
2022-10-22T09:14:49.435Z,22.92
2022-10-22T09:17:29.564Z,22.72
2022-10-22T09:20:26.357Z,22.97
2022-10-22T09:23:16.835Z,23.29
2022-10-22T09:25:47.152Z,23.02
2022-10-22T09:28:15.984Z,22.97
2022-10-22T09:30:43.439Z,23.68
2022-10-22T09:33:10.054Z,24.21
2022-10-22T09:35:50.908Z,24.60
2022-10-22T09:38:23.445Z,24.39
2022-10-22T09:40:53.130Z,24.89
2022-10-22T09:43:20.176Z,24.64
2022-10-22T09:45:49.739Z,24.96
2022-10-22T09:48:30.574Z,25.04
2022-10-22T09:51:41.648Z,24.69
2022-10-22T09:54:23.593Z,24.78
2022-10-22T09:57:05.640Z,24.62
2022-10-22T09:59:39.531Z,25.04
2022-10-22T10:02:43.724Z,25.20
2022-10-22T10:05:20.028Z,24.42
2022-10-22T10:07:50.331Z,25.22
2022-10-22T10:10:37.113Z,25.73
2022-10-22T10:13:19.647Z,25.41
2022-10-22T10:16:20.961Z,24.89
2022-10-22T10:19:13.565Z,24.85
2022-10-22T10:22:00.020Z,24.70
2022-10-22T10:24:34.389Z,25.42
2022-10-22T10:27:20.215Z,25.52
2022-10-22T10:29:55.990Z,25.99
2022-10-22T10:32:46.386Z,26.60
2022-10-22T10:35:25.695Z,26.69
2022-10-22T10:38:03.975Z,27.32
2022-10-22T10:40:39.832Z,28.05
2022-10-22T10:43:29.599Z,27.76
2022-10-22T10:46:21.208Z,27.31
2022-10-22T10:48:56.599Z,27.20
2022-10-22T10:51:39.345Z,27.11
2022-10-22T10:54:16.729Z,27.56
2022-10-22T10:56:58.695Z,27.46
2022-10-22T10:59:44.112Z,27.86
2022-10-22T11:02:29.465Z,28.28
2022-10-22T11:05:23.328Z,28.08
2022-10-22T11:07:59.700Z,28.64
2022-10-22T11:10:36.549Z,27.99
2022-10-22T11:13:31.045Z,27.51
2022-10-22T11:16:06.976Z,28.06
2022-10-22T11:18:48.213Z,27.77
2022-10-22T11:21:22.797Z,27.61
2022-10-22T11:24:49.212Z,27.98
2022-10-22T11:27:22.716Z,27.71
2022-10-22T11:29:59.412Z,27.26
2022-10-22T11:32:28.005Z,27.47
2022-10-22T11:35:03.206Z,27.56
2022-10-22T11:37:34.941Z,27.78
2022-10-22T11:40:11.022Z,27.97
2022-10-22T11:42:43.306Z,27.71
2022-10-22T11:45:15.564Z,27.30
2022-10-22T11:47:53.101Z,26.44
2022-10-22T11:50:45.465Z,26.50
2022-10-22T11:53:14.713Z,26.66
2022-10-22T11:55:50.884Z,26.40
2022-10-22T11:58:42.235Z,25.26
2022-10-22T12:01:13.299Z,25.21
2022-10-22T12:04:04.074Z,24.79
2022-10-22T12:06:56.523Z,25.91
2022-10-22T12:09:26.687Z,26.23
2022-10-22T12:12:03.453Z,25.09
2022-10-22T12:14:40.773Z,24.80
2022-10-22T12:17:15.654Z,25.01
2022-10-22T12:19:48.961Z,24.30
2022-10-22T12:22:21.045Z,23.88
2022-10-22T12:24:51.760Z,24.53
2022-10-22T12:27:30.143Z,24.82
2022-10-22T12:29:59.128Z,25.28
2022-10-22T12:32:40.510Z,25.02
2022-10-22T12:35:17.672Z,24.69
2022-10-22T12:37:50.760Z,24.57
2022-10-22T12:40:20.334Z,24.63
2022-10-22T12:42:58.746Z,24.19
2022-10-22T12:45:34.317Z,24.00
2022-10-22T12:48:07.342Z,24.24
2022-10-22T12:50:38.345Z,24.48
2022-10-22T12:53:07.103Z,24.46
2022-10-22T12:55:34.533Z,24.51
2022-10-22T12:58:07.373Z,24.39
2022-10-22T13:00:35.471Z,24.01
2022-10-22T13:03:06.541Z,24.21
2022-10-22T13:05:43.299Z,24.34
2022-10-22T13:08:12.564Z,23.96
2022-10-22T13:10:41.508Z,23.62
2022-10-22T13:13:42.766Z,23.38
2022-10-22T13:16:25.785Z,23.18
2022-10-22T13:18:53.133Z,23.17
2022-10-22T13:21:29.676Z,23.34
2022-10-22T13:24:03.436Z,23.48
2022-10-22T13:26:34.010Z,23.22
2022-10-22T13:29:01.453Z,23.02
2022-10-22T13:31:33.631Z,22.93
2022-10-22T13:34:09.784Z,22.76
2022-10-22T13:36:38.642Z,22.73
2022-10-22T13:39:08.028Z,22.42
2022-10-22T13:44:12.828Z,22.18
2022-10-22T13:46:42.913Z,22.02
2022-10-22T13:49:23.610Z,22.13
2022-10-22T13:51:51.356Z,21.94
2022-10-22T13:54:23.822Z,21.86
2022-10-22T13:56:50.548Z,21.78
2022-10-22T13:59:19.767Z,21.75
2022-10-22T14:01:49.400Z,21.85
2022-10-22T14:04:17.645Z,21.78
2022-10-22T14:06:44.428Z,21.70
2022-10-22T14:09:15.152Z,21.40
2022-10-22T14:11:42.097Z,21.43
2022-10-22T14:14:09.236Z,21.39
2022-10-22T14:16:37.652Z,21.38
2022-10-22T14:19:07.346Z,21.50
2022-10-22T14:21:37.768Z,21.41
2022-10-22T14:24:07.073Z,21.21
2022-10-22T14:26:42.572Z,21.27
2022-10-22T14:29:10.342Z,21.25
2022-10-22T14:34:12.481Z,21.10
2022-10-22T14:36:39.086Z,21.00
2022-10-22T14:39:07.871Z,20.97
2022-10-22T14:41:36.493Z,20.86
2022-10-22T14:44:03.158Z,20.97
2022-10-22T14:46:29.643Z,20.92
2022-10-22T14:49:07.573Z,20.91
2022-10-22T14:51:36.792Z,20.75
2022-10-22T14:54:06.780Z,20.79
2022-10-22T14:56:33.309Z,20.82
2022-10-22T14:58:59.853Z,20.68
2022-10-22T15:01:26.361Z,20.57
2022-10-22T15:03:52.879Z,20.62
2022-10-22T15:06:23.865Z,20.48
2022-10-22T15:08:50.874Z,20.38
2022-10-22T15:11:19.637Z,20.31
2022-10-22T15:13:46.136Z,20.20
2022-10-22T15:16:15.522Z,20.02
2022-10-22T15:18:44.728Z,19.81
2022-10-22T15:21:20.506Z,19.68
2022-10-22T15:23:47.358Z,19.63
2022-10-22T15:26:14.692Z,19.54
2022-10-22T15:28:41.714Z,19.51
2022-10-22T15:31:08.508Z,19.49
2022-10-22T15:33:34.990Z,19.41
2022-10-22T15:36:11.928Z,19.30
2022-10-22T15:38:38.571Z,19.24
2022-10-22T15:41:08.672Z,19.22
2022-10-22T15:43:35.351Z,19.13
2022-10-22T15:46:14.881Z,19.01
2022-10-22T15:48:42.171Z,18.84
2022-10-22T15:51:14.678Z,18.74
2022-10-22T15:53:41.603Z,18.63
2022-10-22T15:56:09.045Z,18.54
2022-10-22T15:58:37.814Z,18.44
2022-10-22T16:01:15.379Z,18.33
2022-10-22T16:03:42.216Z,18.20
2022-10-22T16:06:09.538Z,18.10
2022-10-22T16:08:37.232Z,17.98
2022-10-22T16:11:03.987Z,17.84
2022-10-22T16:13:31.078Z,17.73
2022-10-22T16:16:02.007Z,17.59
2022-10-22T16:18:28.574Z,17.44
2022-10-22T16:20:55.021Z,17.29
2022-10-22T16:23:21.652Z,17.08
2022-10-22T16:25:48.204Z,16.89
2022-10-22T16:28:14.858Z,16.75
2022-10-22T16:30:43.505Z,16.71
2022-10-22T16:33:11.649Z,16.66
2022-10-22T16:35:42.093Z,16.60
2022-10-22T16:38:10.935Z,16.53
2022-10-22T16:40:39.788Z,16.42
2022-10-22T16:43:06.335Z,16.31
2022-10-22T16:45:34.632Z,16.20
2022-10-22T16:50:54.853Z,15.93
2022-10-22T16:53:24.885Z,15.82
2022-10-22T16:55:51.389Z,15.73
2022-10-22T16:58:18.077Z,15.66
2022-10-22T17:00:44.629Z,15.59
2022-10-22T17:03:12.160Z,15.55
2022-10-22T17:05:43.338Z,15.48
2022-10-22T17:08:09.804Z,15.42
2022-10-22T17:10:37.419Z,15.34
2022-10-22T17:13:07.411Z,15.23
2022-10-22T17:15:33.943Z,15.15
2022-10-22T17:18:00.843Z,15.06
2022-10-22T17:20:35.086Z,15.03
2022-10-22T17:23:01.564Z,15.02
2022-10-22T17:26:02.862Z,15.03
2022-10-22T17:28:29.768Z,14.99
2022-10-22T17:31:14.794Z,14.98
2022-10-22T17:33:41.294Z,14.95
2022-10-22T17:36:10.873Z,14.95
2022-10-22T17:38:40.586Z,14.89
2022-10-22T17:41:10.408Z,14.84
2022-10-22T17:43:40.693Z,14.79
2022-10-22T17:46:12.520Z,14.73
2022-10-22T17:48:39.013Z,14.66
2022-10-22T17:51:10.335Z,14.63
2022-10-22T17:53:40.856Z,14.63
2022-10-22T17:56:10.147Z,14.61
2022-10-22T17:58:37.359Z,14.60
2022-10-22T18:01:04.656Z,14.57
2022-10-22T18:03:32.297Z,14.58
2022-10-22T18:06:07.492Z,14.56
2022-10-22T18:08:34.125Z,14.55
2022-10-22T18:11:01.197Z,14.51
2022-10-22T18:16:19.562Z,14.48
2022-10-22T18:18:50.663Z,14.47
2022-10-22T18:21:17.820Z,14.43
2022-10-22T18:23:45.067Z,14.38
2022-10-22T18:26:12.010Z,14.35
2022-10-22T18:28:38.531Z,14.33
2022-10-22T18:31:09.359Z,14.31
2022-10-22T18:33:36.938Z,14.27
2022-10-22T18:36:11.628Z,14.23
2022-10-22T18:38:38.610Z,14.19
2022-10-22T18:41:09.885Z,14.16
2022-10-22T18:43:38.551Z,14.11
2022-10-22T18:46:10.604Z,14.06
2022-10-22T18:48:37.145Z,14.00
2022-10-22T18:51:10.114Z,13.93
2022-10-22T18:53:37.632Z,13.90
2022-10-22T18:56:09.303Z,13.89
2022-10-22T18:58:42.706Z,13.89
2022-10-22T19:01:13.507Z,13.84
2022-10-22T19:03:40.392Z,13.82
2022-10-22T19:06:09.456Z,13.81
2022-10-22T19:08:37.036Z,13.81
2022-10-22T19:11:15.485Z,13.80
2022-10-22T19:13:42.840Z,13.82
2022-10-22T19:16:15.571Z,13.89
2022-10-22T19:18:44.088Z,13.93
2022-10-22T19:21:11.509Z,13.93
2022-10-22T19:23:38.004Z,13.92
2022-10-22T19:26:12.386Z,13.95
2022-10-22T19:28:39.982Z,13.92
2022-10-22T19:31:18.999Z,13.90
2022-10-22T19:33:47.991Z,13.90
2022-10-22T19:36:16.840Z,13.97
2022-10-22T19:41:21.261Z,14.05
2022-10-22T19:43:50.296Z,14.07
2022-10-22T19:46:18.220Z,14.08
2022-10-22T19:51:21.571Z,14.02
2022-10-22T19:53:49.177Z,13.96
2022-10-22T19:56:21.119Z,13.95
2022-10-22T19:58:47.954Z,13.92
2022-10-22T20:01:25.672Z,13.91
2022-10-22T20:03:54.558Z,13.99
2022-10-22T20:06:21.953Z,14.01
2022-10-22T20:08:51.120Z,14.01
2022-10-22T20:11:25.863Z,14.05
2022-10-22T20:13:54.171Z,14.07
2022-10-22T20:16:24.345Z,14.08
2022-10-22T20:18:53.665Z,14.14
2022-10-22T20:21:23.474Z,14.17
2022-10-22T20:23:54.591Z,14.21
2022-10-22T20:26:23.386Z,14.25
2022-10-22T20:28:56.505Z,14.28
2022-10-22T20:31:27.140Z,14.30
2022-10-22T20:33:56.896Z,14.36
2022-10-22T20:36:26.585Z,14.38
2022-10-22T20:38:53.294Z,14.37
2022-10-22T20:41:22.494Z,14.41
2022-10-22T20:43:51.632Z,14.46
2022-10-22T20:46:25.512Z,14.41
2022-10-22T20:48:58.265Z,14.41
2022-10-22T20:51:24.845Z,14.37
2022-10-22T20:53:51.342Z,14.33
2022-10-22T20:56:18.653Z,14.35
2022-10-22T20:58:49.084Z,14.26
2022-10-22T21:01:29.814Z,14.22
2022-10-22T21:03:56.888Z,14.22
2022-10-22T21:06:25.688Z,14.30
2022-10-22T21:08:54.261Z,14.34
2022-10-22T21:11:22.758Z,14.42
2022-10-22T21:13:50.341Z,14.44
2022-10-22T21:16:20.523Z,14.47
2022-10-22T21:18:49.659Z,14.50
2022-10-22T21:21:19.999Z,14.54
2022-10-22T21:23:48.816Z,14.48
2022-10-22T21:26:15.328Z,14.41
2022-10-22T21:28:41.861Z,14.40
2022-10-22T21:31:10.520Z,14.33
2022-10-22T21:33:39.195Z,14.22
2022-10-22T21:36:06.948Z,14.17
2022-10-22T21:38:41.650Z,14.16
2022-10-22T21:41:10.664Z,14.13
2022-10-22T21:43:40.250Z,14.12
2022-10-22T21:46:15.126Z,14.08
2022-10-22T21:48:44.246Z,14.12
2022-10-22T21:51:13.571Z,14.12
2022-10-22T21:53:41.332Z,14.05
2022-10-22T21:56:12.811Z,14.02
2022-10-22T21:58:39.323Z,13.97
2022-10-22T22:01:10.502Z,13.91
2022-10-22T22:03:37.218Z,13.89
2022-10-22T22:06:06.266Z,13.90
2022-10-22T22:08:34.399Z,13.90
2022-10-22T22:11:06.740Z,13.90
2022-10-22T22:13:34.226Z,13.93
2022-10-22T22:16:05.728Z,13.90
2022-10-22T22:18:32.659Z,13.84
2022-10-22T22:20:59.993Z,13.89
2022-10-22T22:23:35.184Z,13.91
2022-10-22T22:26:02.292Z,13.99
2022-10-22T22:28:30.440Z,13.95
2022-10-22T22:30:57.569Z,13.97
2022-10-22T22:33:24.557Z,14.00
2022-10-22T22:35:51.488Z,13.97
2022-10-22T22:38:20.321Z,13.90
2022-10-22T22:40:47.078Z,13.93
2022-10-22T22:43:13.606Z,13.92
2022-10-22T22:45:42.589Z,13.92
2022-10-22T22:48:09.085Z,13.82
2022-10-22T22:50:36.689Z,13.74
2022-10-22T22:53:05.415Z,13.63
2022-10-22T22:55:32.099Z,13.43
2022-10-22T22:57:58.962Z,13.29
2022-10-22T23:00:27.246Z,13.15
2022-10-22T23:02:55.553Z,13.03
2022-10-22T23:05:22.121Z,12.94
2022-10-22T23:07:50.882Z,12.82
2022-10-22T23:10:17.413Z,12.73
2022-10-22T23:12:44.165Z,12.69
2022-10-22T23:15:13.457Z,12.62
2022-10-22T23:17:39.975Z,12.58
2022-10-22T23:20:11.931Z,12.55
2022-10-22T23:22:40.443Z,12.48
2022-10-22T23:25:07.522Z,12.45
2022-10-22T23:27:34.005Z,12.41
2022-10-22T23:30:02.254Z,12.42
2022-10-22T23:32:31.206Z,12.43
2022-10-22T23:34:57.831Z,12.42
2022-10-22T23:37:24.510Z,12.41
2022-10-22T23:39:50.974Z,12.39
2022-10-22T23:42:17.442Z,12.38
2022-10-22T23:44:49.089Z,12.39
2022-10-22T23:47:15.581Z,12.37
2022-10-22T23:49:42.410Z,12.35
2022-10-22T23:52:11.358Z,12.34
2022-10-22T23:54:37.843Z,12.35
2022-10-22T23:57:04.378Z,12.29
2022-10-22T23:59:32.614Z,12.25
